Flight Track Log - Related Links

Times and Time Zones

All times are in EDT time to prevent confusion due to time zone crossing. See the CPZ5846 flight status page for this flight to view local times or setup timezone preferences in your user account.

Time Position Orientation Groundspeed Altitude Reporting Facility
EDT Latitude Longitude Course Direction KTS MPH feet Rate Location/Type
Mon 05:09:15 PM 45.6678 -111.0100 318° Northwest  Level FlightAware Approximate
Mon 05:10:15 PM 45.6379 -110.8495 302° West  Level FlightAware Approximate
Mon 05:10:54 PM 45.7594 -111.1275 134° Southeast 199 229 5,300  Level Salt Lake Center
Mon 05:11:55 PM 45.7136 -111.0606 133° Southeast 215 247 6,400 1,854 Climbing Salt Lake Center
Mon 05:12:57 PM 45.6658 -110.9864 99° East 244 281 9,100 2,081 Climbing Salt Lake Center
Mon 05:13:59 PM 45.6533 -110.8744 92° East 277 319 10,700 1,984 Climbing Salt Lake Center
Mon 05:15:01 PM 45.6506 -110.7403 87° East 323 372 13,200 2,293 Climbing Salt Lake Center
Mon 05:16:02 PM 45.6553 -110.5997 74° East 360 414 15,400 2,439 Climbing Salt Lake Center
Mon 05:17:04 PM 45.6842 -110.4508 72° East 375 432 18,200 2,468 Climbing Salt Lake Center
Mon 05:18:06 PM 45.7203 -110.2889 73° East 383 441 20,500 2,081 Climbing Salt Lake Center
Mon 05:19:08 PM 45.7511 -110.1450 78° East 392 451 22,500 1,935 Climbing Salt Lake Center
Mon 05:20:10 PM 45.7761 -109.9697 92° East 403 464 24,500 1,707 Climbing Salt Lake Center
Mon 05:21:11 PM 45.7728 -109.8108 91° East 418 481 26,000 1,220 Climbing Salt Lake Center
Mon 05:22:13 PM 45.7697 -109.6414 92° East 439 505 27,000 1,210 Climbing Salt Lake Center
Mon 05:23:15 PM 45.7644 -109.4417 92° East 447 514 28,500 1,403 Climbing Salt Lake Center
Mon 05:24:17 PM 45.7597 -109.2683 93° East 453 521 29,900 1,210 Climbing Salt Lake Center
Mon 05:25:19 PM 45.7533 -109.0667 93° East 453 521 31,000 1,016 Climbing Salt Lake Center
Mon 05:26:21 PM 45.7472 -108.8956 93° East 450 518 32,000 1,210 Climbing Salt Lake Center
Mon 05:27:23 PM 45.7397 -108.6950 93° East 451 519 33,500 1,210 Climbing Salt Lake Center
Mon 05:28:25 PM 45.7342 -108.5208 93° East 457 526 34,500 726 Climbing Salt Lake Center
Mon 05:29:27 PM 45.7269 -108.3203 92° East 451 519 35,000 532 Climbing Salt Lake Center
Mon 05:30:29 PM 45.7217 -108.1431 93° East 459 528 35,600 871 Climbing Salt Lake Center
Mon 05:31:31 PM 45.7147 -107.9678 93° East 459 528 36,800 677 Climbing Salt Lake Center
Mon 05:32:33 PM 45.7064 -107.7667 93° East 454 522 37,000 97 Climbing Salt Lake Center
Mon 05:33:35 PM 45.6989 -107.5900 94° East 460 529 37,000  Level Salt Lake Center
Mon 05:34:37 PM 45.6894 -107.3792 94° East 471 542 37,000  Level Salt Lake Center
Mon 05:35:39 PM 45.6814 -107.1986 93° East 473 544 37,000  Level Salt Lake Center
Mon 05:36:41 PM 45.6742 -106.9906 94° East 470 541 37,000  Level Salt Lake Center
Mon 05:37:43 PM 45.6656 -106.8106 95° East 471 542 37,000  Level Salt Lake Center
Mon 05:38:45 PM 45.6536 -106.6011 94° East 472 543 37,000  Level Salt Lake Center
Mon 05:39:47 PM 45.6444 -106.4228 95° East 471 542 37,000  Level Salt Lake Center
Mon 05:40:49 PM 45.6344 -106.2447 94° East 470 541 37,000  Level Salt Lake Center
Mon 05:41:51 PM 45.6236 -106.0361 95° East 471 542 37,000  Level Salt Lake Center
Mon 05:42:53 PM 45.6136 -105.8578 95° East 471 542 37,000  Level Salt Lake Center
Mon 05:43:55 PM 45.6006 -105.6517 95° East 469 540 37,000  Level Salt Lake Center
Mon 05:44:57 PM 45.5900 -105.4753 95° East 467 537 37,000  Level Salt Lake Center
Mon 05:45:59 PM 45.5772 -105.2703 95° East 465 535 37,000  Level Salt Lake Center
Mon 05:47:01 PM 45.5656 -105.0925 96° East 468 539 37,000  Level Salt Lake Center
Mon 05:48:03 PM 45.5514 -104.8878 95° East 466 536 37,000  Level Salt Lake Center
Mon 05:49:05 PM 45.5400 -104.7117 95° East 466 536 37,000  Level Salt Lake Center
Mon 05:50:07 PM 45.5261 -104.5058 96° East 467 537 37,000  Level Salt Lake Center
Mon 05:51:08 PM 45.5133 -104.3286 96° East 467 537 37,000  Level Salt Lake Center
Mon 05:52:10 PM 45.5000 -104.1528 96° East 467 537 37,000  Level Salt Lake Center
Mon 05:53:12 PM 45.4850 -103.9469 96° East 468 539 37,000  Level Salt Lake Center
Mon 05:54:14 PM 45.4708 -103.7525 97° East 471 542 37,000  Level Salt Lake Center
Mon 05:55:16 PM 45.4564 -103.5736 96° East 473 544 37,000  Level Salt Lake Center
Mon 05:56:18 PM 45.4397 -103.3667 96° East 472 543 37,000  Level Salt Lake Center
Mon 05:57:20 PM 45.4256 -103.1900 97° East 471 542 37,000  Level Salt Lake Center
Mon 05:58:22 PM 45.4086 -102.9828 97° East 471 542 37,000  Level Salt Lake Center
Mon 05:59:24 PM 45.3936 -102.8036 98° East 473 544 37,000  Level Salt Lake Center
Mon 06:00:26 PM 45.3742 -102.5969 97° East 473 544 37,000  Level Salt Lake Center
Mon 06:01:28 PM 45.3589 -102.4214 98° East 472 543 37,000  Level Salt Lake Center
Mon 06:02:33 PM 45.3419 -102.2431 98° East 469 540 37,000  Level Minneapolis Center
Mon 06:03:33 PM 45.3247 -102.0628 97° East 469 540 37,000  Level Minneapolis Center
Mon 06:04:32 PM 45.3092 -101.8797 98° East 469 540 37,000  Level Minneapolis Center
Mon 06:05:32 PM 45.2917 -101.6967 98° East 469 540 37,000  Level Minneapolis Center
Mon 06:06:33 PM 45.2733 -101.5164 97° East 469 540 37,000  Level Minneapolis Center
Mon 06:07:33 PM 45.2572 -101.3308 97° East 469 540 37,000  Level Minneapolis Center
Mon 06:08:33 PM 45.2406 -101.1483 99° East 469 540 37,000  Level Minneapolis Center
Mon 06:09:33 PM 45.2194 -100.9681 98° East 469 540 37,000  Level Minneapolis Center
Mon 06:10:33 PM 45.2022 -100.7856 98° East 469 540 37,000  Level Minneapolis Center
Mon 06:11:33 PM 45.1847 -100.6033 99° East 469 540 37,000  Level Minneapolis Center
Mon 06:12:32 PM 45.1631 -100.4178 99° East 469 540 37,000  Level Minneapolis Center
Mon 06:13:33 PM 45.1417 -100.2203 98° East 469 540 37,000  Level Minneapolis Center
Mon 06:14:33 PM 45.1236 -100.0356 98° East 469 540 37,000  Level Minneapolis Center
Mon 06:15:33 PM 45.1033 -99.8444 99° East 479 551 37,000  Level Minneapolis Center
Mon 06:16:33 PM 45.0822 -99.6625 100° East 479 551 37,000  Level Minneapolis Center
Mon 06:17:33 PM 45.0589 -99.4747 99° East 479 551 37,000  Level Minneapolis Center
Mon 06:18:33 PM 45.0394 -99.2931 100° East 474 545 37,000  Level Minneapolis Center
Mon 06:19:33 PM 45.0186 -99.1292 100° East 474 545 37,000  Level Minneapolis Center
Mon 06:20:33 PM 44.9964 -98.9447 101° East 474 545 37,000  Level Minneapolis Center
Mon 06:21:33 PM 44.9719 -98.7603 99° East 474 545 37,000  Level Minneapolis Center
Mon 06:22:33 PM 44.9514 -98.5733 101° East 474 545 37,000  Level Minneapolis Center
Mon 06:23:32 PM 44.9264 -98.3892 99° East 474 545 37,000  Level Minneapolis Center
Mon 06:24:33 PM 44.9050 -98.2056 100° East 469 540 37,000  Level Minneapolis Center
Mon 06:25:32 PM 44.8814 -98.0244 100° East 474 545 37,000  Level Minneapolis Center
Mon 06:26:33 PM 44.8575 -97.8411 101° East 474 545 37,000  Level Minneapolis Center
Mon 06:27:32 PM 44.8297 -97.6367 100° East 474 545 37,000  Level Minneapolis Center
Mon 06:28:32 PM 44.8072 -97.4594 101° East 474 545 37,000  Level Minneapolis Center
Mon 06:29:33 PM 44.7822 -97.2764 93° East 469 540 37,000  Level Minneapolis Center
Mon 06:30:33 PM 44.7758 -97.0944 93° East 469 540 37,000  Level Minneapolis Center
Mon 06:31:33 PM 44.7692 -96.9128 94° East 463 533 37,000  Level Minneapolis Center
Mon 06:32:33 PM 44.7614 -96.7514 92° East 463 533 37,000  Level Minneapolis Center
Mon 06:33:33 PM 44.7564 -96.5669 93° East 463 533 37,000  Level Minneapolis Center
Mon 06:34:33 PM 44.7486 -96.3881 93° East 463 533 37,000  Level Minneapolis Center
Mon 06:35:33 PM 44.7408 -96.2094 94° East 463 533 37,000  Level Minneapolis Center
Mon 06:36:32 PM 44.7306 -96.0247 93° East 463 533 37,000  Level Minneapolis Center
Mon 06:37:33 PM 44.7225 -95.8286 94° East 463 533 37,000  Level Minneapolis Center
Mon 06:38:33 PM 44.7136 -95.6500 94° East 463 533 37,000 -1,450 Level Minneapolis Center
Mon 06:39:33 PM 44.7044 -95.4686 94° East 463 533 34,100 -3,050 Descending Minneapolis Center
Mon 06:40:33 PM 44.6950 -95.2931 95° East 463 533 30,900 -2,900 Descending Minneapolis Center
Mon 06:41:33 PM 44.6850 -95.1322 94° East 463 533 28,300 -2,874 Descending Minneapolis Center
Mon 06:42:32 PM 44.6772 -94.9597 95° East 457 526 25,200 -3,050 Descending Minneapolis Center
Mon 06:43:33 PM 44.6667 -94.7931 94° East 446 513 22,200 -3,000 Descending Minneapolis Center
Mon 06:45:16 PM 44.6531 -94.5039 94° East 400 460 17,000 -2,895 Descending FAA TRACON SMA TRACON (SMA)
Mon 06:45:56 PM 44.6481 -94.4108 80° East 387 445 15,300 -2,625 Descending FAA TRACON SMA TRACON (SMA)
Mon 06:46:36 PM 44.6603 -94.3147 73° East 360 414 13,500 -2,550 Descending FAA TRACON SMA TRACON (SMA)
Mon 06:47:16 PM 44.6792 -94.2253 72° East 342 394 11,900 -1,875 Descending FAA TRACON SMA TRACON (SMA)
Mon 06:47:56 PM 44.6964 -94.1500 73° East 326 375 11,000 -675 Descending FAA TRACON SMA TRACON (SMA)
Mon 06:48:36 PM 44.7142 -94.0658 73° East 329 379 11,000  Level FAA TRACON SMA TRACON (SMA)
Mon 06:49:16 PM 44.7331 -93.9803 73° East 331 381 11,000  Level FAA TRACON SMA TRACON (SMA)
Mon 06:49:55 PM 44.7500 -93.9044 73° East 330 380 11,000  Level FAA TRACON SMA TRACON (SMA)
Mon 06:50:36 PM 44.7683 -93.8192 72° East 330 380 11,000  Level FAA TRACON SMA TRACON (SMA)
Mon 06:51:16 PM 44.7878 -93.7339 73° East 332 382 11,000 -75 Level FAA TRACON SMA TRACON (SMA)
Mon 06:51:56 PM 44.8039 -93.6575 73° East 330 380 10,900 -450 Descending FAA TRACON SMA TRACON (SMA)
Mon 06:52:36 PM 44.8214 -93.5769 72° East 307 353 10,400 -1,275 Descending FAA TRACON SMA TRACON (SMA)
Mon 06:53:16 PM 44.8383 -93.5025 73° East 287 330 9,200 -1,125 Descending FAA TRACON SMA TRACON (SMA)
Mon 06:53:56 PM 44.8531 -93.4358 89° East 290 334 8,900 -750 Descending FAA TRACON SMA TRACON (SMA)
Mon 06:54:36 PM 44.8539 -93.3603 157° South 298 343 8,200 -750 Descending FAA TRACON SMA TRACON (SMA)
Mon 06:55:16 PM 44.8056 -93.3319 178° South 281 323 7,900 -525 Descending FAA TRACON SMA TRACON (SMA)
Mon 06:55:56 PM 44.7644 -93.3300 179° South 236 272 7,500 -975 Descending FAA TRACON SMA TRACON (SMA)
Mon 06:56:36 PM 44.7208 -93.3286 179° South 225 259 6,600 -1,125 Descending FAA TRACON SMA TRACON (SMA)
Mon 06:57:16 PM 44.6789 -93.3272 156° South 217 250 6,000 -675 Descending FAA TRACON SMA TRACON (SMA)
Mon 06:57:56 PM 44.6433 -93.3053 67° East 225 259 5,700 -900 Descending FAA TRACON SMA TRACON (SMA)
Mon 06:58:36 PM 44.6561 -93.2631 25° Northeast 221 254 4,800 -1,425 Descending FAA TRACON SMA TRACON (SMA)
Mon 06:59:16 PM 44.6903 -93.2406 23° Northeast 195 224 3,800 -1,350 Descending FAA TRACON SMA TRACON (SMA)
Mon 06:59:56 PM 44.7247 -93.2197 14° North 195 224 3,000 -600 Descending FAA TRACON SMA TRACON (SMA)
Mon 07:00:36 PM 44.7544 -93.2094 352° North 177 204 3,000 -450 Level FAA TRACON SMA TRACON (SMA)
Mon 07:01:16 PM 44.7864 -93.2156 350° North 164 189 2,400 -825 Descending FAA TRACON SMA TRACON (SMA)
Mon 07:01:56 PM 44.8125 -93.2222 349° North 134 154 1,900 -675 Descending FAA TRACON SMA TRACON (SMA)
Mon 07:02:36 PM 44.8347 -93.2281 349° North 131 151 1,500 -675 Descending FAA TRACON SMA TRACON (SMA)
Mon 07:03:16 PM 44.8594 -93.2350 349° North 131 151 1,000 -750 Descending FAA TRACON SMA TRACON (SMA)

Login

Don't have an account? Register now (free) for customized features, flight alerts, and more!